Time;durP1;ratioP1;P1;durP2;ratioP2;P2;SDS_P1;SDS_P2;PMS_P1;PMS_P2;Temp;Humidity;BMP_temperature;BMP_pressure;BME280_temperature;BME280_humidity;BME280_pressure;Samples;Min_cycle;Max_cycle;Signal;HPM_P1;HPM_P2
2022/05/31 00:02:01;;;;;;;14.85;6.30;;;20.90;99.90;;;;;;5014932;28;20499;-77
2022/05/31 00:04:29;;;;;;;10.90;4.60;;;21.00;99.90;;;;;;5026816;28;20392;-77
2022/05/31 00:06:56;;;;;;;11.50;5.88;;;21.00;99.90;;;;;;5031885;28;20228;-76
2022/05/31 00:09:25;;;;;;;15.90;5.88;;;21.00;99.90;;;;;;5047874;28;20056;-76
2022/05/31 00:11:52;;;;;;;14.10;5.15;;;21.00;99.90;;;;;;5031565;28;20214;-77
2022/05/31 00:14:20;;;;;;;11.52;5.25;;;21.00;99.90;;;;;;5003725;28;20829;-76
2022/05/31 00:16:47;;;;;;;13.23;5.70;;;21.00;99.90;;;;;;5032060;28;20109;-75
2022/05/31 00:19:17;;;;;;;17.42;5.88;;;21.00;99.90;;;;;;5033030;28;20134;-76
2022/05/31 00:22:03;;;;;;;14.68;4.80;;;20.90;99.90;;;;;;5017993;28;20381;-75
2022/05/31 00:24:31;;;;;;;9.55;6.03;;;20.90;99.90;;;;;;5051101;28;20113;-75
2022/05/31 00:26:58;;;;;;;13.25;5.50;;;20.90;99.90;;;;;;5051203;28;20060;-75
2022/05/31 00:29:26;;;;;;;13.48;5.55;;;20.90;99.90;;;;;;5035746;28;20045;-75
2022/05/31 00:31:54;;;;;;;17.38;6.07;;;20.80;99.90;;;;;;5053624;28;20099;-74
2022/05/31 00:34:22;;;;;;;12.40;5.28;;;20.80;99.90;;;;;;5059399;28;20084;-75
2022/05/31 00:36:50;;;;;;;15.13;6.00;;;20.80;99.90;;;;;;5055392;28;20382;-75
2022/05/31 00:39:18;;;;;;;12.10;5.95;;;20.80;99.90;;;;;;5055503;28;20048;-76
2022/05/31 00:42:07;;;;;;;13.60;5.93;;;20.70;99.90;;;;;;5072122;28;20131;-76
2022/05/31 00:44:35;;;;;;;14.30;4.97;;;20.70;99.90;;;;;;5072053;28;20106;-76
2022/05/31 00:47:14;;;;;;;12.68;6.03;;;20.70;99.90;;;;;;5054993;28;20111;-75
2022/05/31 00:49:46;;;;;;;13.10;5.63;;;20.60;99.90;;;;;;5055808;28;20080;-76
2022/05/31 00:52:54;;;;;;;11.13;5.55;;;20.60;99.90;;;;;;5054028;28;20053;-77
2022/05/31 00:55:35;;;;;;;23.58;7.20;;;20.70;99.90;;;;;;5071908;28;20486;-77
2022/05/31 00:58:17;;;;;;;12.93;5.47;;;20.60;99.90;;;;;;5072117;28;20099;-77
2022/05/31 01:00:45;;;;;;;11.50;4.97;;;20.60;99.90;;;;;;5055417;28;20032;-77
2022/05/31 01:03:16;;;;;;;14.38;5.75;;;20.70;99.90;;;;;;5055273;28;20508;-76
2022/05/31 01:05:44;;;;;;;12.73;5.93;;;20.70;99.90;;;;;;5055139;28;20052;-77
2022/05/31 01:08:12;;;;;;;13.23;5.93;;;20.70;99.90;;;;;;5038178;28;20410;-76
2022/05/31 01:11:00;;;;;;;11.20;5.63;;;20.60;99.90;;;;;;5047107;28;20041;-76
2022/05/31 01:13:53;;;;;;;18.05;6.22;;;20.60;99.90;;;;;;5068480;28;20049;-75
2022/05/31 01:16:57;;;;;;;12.98;6.13;;;20.60;99.90;;;;;;5033251;28;20524;-75
2022/05/31 01:19:56;;;;;;;;;;;20.50;99.90;;;;;;5057566;28;20048;-77
2022/05/31 01:22:30;;;;;;;15.70;6.22;;;20.50;99.90;;;;;;5038721;28;19924;-78
2022/05/31 01:25:09;;;;;;;14.60;5.50;;;20.50;99.90;;;;;;5038248;28;20045;-77
2022/05/31 01:27:52;;;;;;;13.60;7.70;;;20.50;99.90;;;;;;5018493;28;20048;-76
2022/05/31 01:30:20;;;;;;;12.68;5.57;;;20.60;99.90;;;;;;5034889;28;20180;-76
2022/05/31 01:33:07;;;;;;;10.88;4.90;;;20.60;99.90;;;;;;5036043;28;20068;-77
2022/05/31 01:35:36;;;;;;;10.93;5.63;;;20.60;99.90;;;;;;5035858;28;20048;-76
2022/05/31 01:38:17;;;;;;;15.38;7.68;;;20.60;99.90;;;;;;5034643;28;20794;-80
2022/05/31 01:41:03;;;;;;;15.30;6.63;;;20.60;99.90;;;;;;5034477;28;20072;-75
2022/05/31 01:43:31;;;;;;;20.25;7.47;;;20.60;99.90;;;;;;5034905;28;20597;-77
2022/05/31 01:46:11;;;;;;;12.50;7.55;;;20.60;99.90;;;;;;5051386;28;20479;-75
2022/05/31 01:48:40;;;;;;;17.35;7.82;;;20.60;99.90;;;;;;5034189;28;20134;-76
2022/05/31 01:51:11;;;;;;;15.65;5.88;;;20.50;99.90;;;;;;5017785;28;20055;-76
2022/05/31 01:53:39;;;;;;;21.48;7.55;;;20.60;99.90;;;;;;5034944;28;20064;-75
2022/05/31 01:56:09;;;;;;;18.65;7.05;;;20.50;99.90;;;;;;5033801;28;20045;-76
2022/05/31 01:58:40;;;;;;;14.50;6.60;;;20.50;99.90;;;;;;5017833;28;20079;-77
2022/05/31 02:01:09;;;;;;;28.00;8.32;;;20.50;99.90;;;;;;5050956;28;20553;-76
2022/05/31 02:03:39;;;;;;;20.25;6.13;;;20.50;99.90;;;;;;5016604;28;20045;-75
2022/05/31 02:06:23;;;;;;;17.85;7.55;;;20.50;99.90;;;;;;5033987;28;20057;-76
2022/05/31 02:08:51;;;;;;;14.70;5.68;;;20.60;99.90;;;;;;5017949;28;20123;-75
2022/05/31 02:11:19;;;;;;;14.23;5.20;;;20.50;99.90;;;;;;5034202;28;20530;-77
2022/05/31 02:13:50;;;;;;;17.17;6.47;;;20.50;99.90;;;;;;5033352;28;20412;-75
2022/05/31 02:16:23;;;;;;;17.63;8.00;;;20.50;99.90;;;;;;5033541;28;20049;-75
2022/05/31 02:19:18;;;;;;;12.02;7.22;;;20.50;99.90;;;;;;5051557;28;20056;-76
2022/05/31 02:22:09;;;;;;;17.63;7.68;;;20.40;99.90;;;;;;5032107;28;20054;-75
2022/05/31 02:24:37;;;;;;;15.77;7.53;;;20.40;99.90;;;;;;4997015;28;20549;-75
2022/05/31 02:27:06;;;;;;;13.98;6.45;;;20.40;99.90;;;;;;5013753;28;20045;-75
2022/05/31 02:29:36;;;;;;;16.27;6.45;;;20.30;99.90;;;;;;5014268;28;20049;-75
2022/05/31 02:32:06;;;;;;;13.77;6.57;;;20.30;99.90;;;;;;5030346;28;20500;-75
2022/05/31 02:34:41;;;;;;;12.88;6.53;;;20.40;99.90;;;;;;5023261;28;20147;-75
2022/05/31 02:37:10;;;;;;;14.23;6.50;;;20.40;99.90;;;;;;5033809;28;20594;-76
2022/05/31 02:39:40;;;;;;;23.63;7.28;;;20.40;99.90;;;;;;5033978;28;20049;-75
2022/05/31 02:42:08;;;;;;;14.63;5.72;;;20.40;99.90;;;;;;5049517;28;20510;-76
2022/05/31 02:44:36;;;;;;;16.83;6.95;;;20.30;99.90;;;;;;5066529;28;20182;-75
2022/05/31 02:47:05;;;;;;;19.70;5.55;;;20.30;99.90;;;;;;5033899;28;20136;-75
2022/05/31 02:49:34;;;;;;;13.55;6.13;;;20.30;99.90;;;;;;5033007;28;20135;-77
2022/05/31 02:52:02;;;;;;;14.20;6.03;;;20.40;99.90;;;;;;5033275;28;20111;-75
2022/05/31 02:54:30;;;;;;;15.60;5.78;;;20.30;99.90;;;;;;5033275;28;20102;-76
2022/05/31 02:57:16;;;;;;;9.90;6.25;;;20.30;99.90;;;;;;5049579;28;20048;-76
2022/05/31 03:00:03;;;;;;;14.07;5.78;;;20.40;99.90;;;;;;5049292;28;20079;-77
2022/05/31 03:02:38;;;;;;;12.93;5.20;;;20.40;99.90;;;;;;5059001;28;20435;-76
2022/05/31 03:05:44;;;;;;;20.35;5.90;;;20.40;99.90;;;;;;5069057;28;20093;-75
2022/05/31 03:08:48;;;;;;;19.02;6.20;;;20.40;99.90;;;;;;5061742;28;20620;-76
2022/05/31 03:11:24;;;;;;;14.15;6.60;;;20.50;99.90;;;;;;5053146;28;20041;-75
2022/05/31 03:13:58;;;;;;;10.10;4.63;;;20.60;99.90;;;;;;5069238;28;20056;-76
2022/05/31 03:16:27;;;;;;;9.85;4.95;;;20.60;99.90;;;;;;5051875;28;20044;-77
2022/05/31 03:19:06;;;;;;;12.68;5.07;;;20.70;99.90;;;;;;5033124;28;20040;-75
2022/05/31 03:21:42;;;;;;;10.77;4.93;;;20.80;99.90;;;;;;5049823;28;20040;-76
2022/05/31 03:24:16;;;;;;;7.90;5.03;;;20.90;99.90;;;;;;5032957;28;20092;-76
2022/05/31 03:26:45;;;;;;;11.80;4.95;;;21.00;99.90;;;;;;5049343;28;20041;-76
2022/05/31 03:29:13;;;;;;;14.85;5.68;;;21.10;99.90;;;;;;5049353;28;20041;-76
2022/05/31 03:31:41;;;;;;;9.52;5.38;;;21.10;99.90;;;;;;5049639;28;20095;-75
2022/05/31 03:34:09;;;;;;;12.93;5.93;;;21.10;99.90;;;;;;5048833;28;20766;-75
2022/05/31 03:36:37;;;;;;;16.73;9.23;;;21.20;99.90;;;;;;5049192;28;20099;-77
2022/05/31 03:39:10;;;;;;;22.35;13.20;;;21.10;99.90;;;;;;5033366;28;20065;-76
2022/05/31 03:41:39;;;;;;;22.10;11.98;;;21.10;99.90;;;;;;5016223;28;20407;-77
2022/05/31 03:44:09;;;;;;;24.80;10.23;;;21.00;99.90;;;;;;5032403;28;20414;-76
2022/05/31 03:47:14;;;;;;;;;;;20.90;99.90;;;;;;4972945;28;20456;-76
2022/05/31 03:50:00;;;;;;;10.02;5.90;;;20.80;99.90;;;;;;4988873;28;19926;-76
2022/05/31 03:52:29;;;;;;;23.75;8.20;;;20.80;99.90;;;;;;5001829;28;20045;-76
2022/05/31 03:54:57;;;;;;;11.48;5.53;;;20.80;99.90;;;;;;5016592;28;20095;-76
2022/05/31 03:57:47;;;;;;;16.00;6.18;;;20.80;99.90;;;;;;5018541;28;20049;-76
2022/05/31 04:00:34;;;;;;;18.27;6.72;;;20.60;99.90;;;;;;5050328;28;20048;-75
2022/05/31 04:03:21;;;;;;;15.57;6.05;;;20.50;99.90;;;;;;5048653;28;20049;-76
2022/05/31 04:05:52;;;;;;;11.57;5.97;;;20.40;99.90;;;;;;5015765;28;20147;-76
2022/05/31 04:08:21;;;;;;;12.43;6.50;;;20.40;99.90;;;;;;5048171;28;20041;-76
2022/05/31 04:10:49;;;;;;;12.13;6.50;;;20.40;99.90;;;;;;5048508;28;20095;-76
2022/05/31 04:13:17;;;;;;;17.98;6.63;;;20.40;99.90;;;;;;5049064;28;20041;-76
2022/05/31 04:16:04;;;;;;;;;;;20.50;99.90;;;;;;5040512;28;20057;-74
2022/05/31 04:18:37;;;;;;;12.43;5.70;;;20.60;99.90;;;;;;5045698;28;19933;-76
2022/05/31 04:21:07;;;;;;;12.82;5.47;;;20.60;99.90;;;;;;5045519;28;20045;-77
2022/05/31 04:26:43;;;;;;;12.07;5.45;;;20.80;99.90;;;;;;5030179;28;20601;-77
2022/05/31 04:29:29;;;;;;;10.57;5.43;;;20.80;99.90;;;;;;5032372;28;20052;-75
2022/05/31 04:32:03;;;;;;;14.25;5.63;;;21.00;99.90;;;;;;5032275;28;20045;-75
2022/05/31 04:34:57;;;;;;;17.75;5.90;;;21.00;99.90;;;;;;5057141;28;20060;-75
2022/05/31 04:37:27;;;;;;;17.50;6.10;;;21.10;99.90;;;;;;5023072;28;20193;-75
2022/05/31 04:39:55;;;;;;;14.38;5.60;;;21.10;99.90;;;;;;5055114;28;20753;-74
2022/05/31 04:42:37;;;;;;;16.23;6.65;;;21.10;99.90;;;;;;5038983;28;20110;-76
2022/05/31 04:45:08;;;;;;;13.63;5.82;;;21.00;99.90;;;;;;5055692;28;20033;-75
2022/05/31 04:47:38;;;;;;;14.05;5.70;;;21.00;99.90;;;;;;5038645;28;20040;-76
2022/05/31 04:50:07;;;;;;;16.58;6.07;;;21.00;99.90;;;;;;5038964;28;20052;-77
2022/05/31 04:52:37;;;;;;;14.13;7.38;;;21.00;99.90;;;;;;5055728;28;20047;-76
2022/05/31 04:55:05;;;;;;;11.35;6.57;;;21.00;99.90;;;;;;5038919;28;20049;-77
2022/05/31 04:57:48;;;;;;;16.02;6.80;;;21.00;99.90;;;;;;5038643;28;20494;-76
2022/05/31 05:00:15;;;;;;;15.30;7.43;;;21.00;99.90;;;;;;5055024;28;20106;-76
2022/05/31 05:02:55;;;;;;;14.35;6.57;;;21.10;99.90;;;;;;5023943;28;20045;-77
2022/05/31 05:05:22;;;;;;;17.65;8.75;;;21.20;99.90;;;;;;5023855;28;20052;-76
2022/05/31 05:07:50;;;;;;;19.13;7.72;;;21.30;99.90;;;;;;5071750;28;20131;-76
2022/05/31 05:10:21;;;;;;;17.13;6.15;;;21.40;99.90;;;;;;5072766;28;20557;-76
2022/05/31 05:12:56;;;;;;;19.87;6.07;;;21.40;99.90;;;;;;5055129;28;20052;-76
2022/05/31 05:15:51;;;;;;;14.90;7.40;;;21.40;99.90;;;;;;5052401;28;20345;-76
2022/05/31 05:18:20;;;;;;;13.02;5.60;;;21.50;99.90;;;;;;5054566;28;20064;-75
2022/05/31 05:20:47;;;;;;;16.65;5.90;;;21.60;99.90;;;;;;5054995;28;20087;-75
2022/05/31 05:23:16;;;;;;;13.70;6.38;;;21.70;99.90;;;;;;5054922;28;20048;-76
2022/05/31 05:25:48;;;;;;;10.23;4.95;;;21.90;99.90;;;;;;5054707;28;20055;-76
2022/05/31 05:31:30;;;;;;;11.70;6.10;;;22.20;99.90;;;;;;5061728;28;20056;-77
2022/05/31 05:34:16;;;;;;;10.90;5.07;;;22.30;99.90;;;;;;5057229;28;20064;-76
2022/05/31 05:37:13;;;;;;;19.42;5.93;;;22.40;99.90;;;;;;5045208;28;20437;-76
2022/05/31 05:39:41;;;;;;;12.60;5.32;;;22.50;99.90;;;;;;5054182;28;20072;-77
2022/05/31 05:42:46;;;;;;;11.45;4.85;;;22.50;99.90;;;;;;5013250;28;20108;-76
2022/05/31 05:45:14;;;;;;;14.98;4.38;;;22.60;99.90;;;;;;5046060;28;20052;-76
2022/05/31 05:47:43;;;;;;;13.18;5.28;;;22.60;99.90;;;;;;5037619;28;20044;-75
2022/05/31 05:50:11;;;;;;;17.38;6.10;;;22.60;99.90;;;;;;5037845;28;20087;-76
2022/05/31 05:53:05;;;;;;;12.35;4.80;;;22.80;99.90;;;;;;5072041;28;20099;-77
2022/05/31 05:55:43;;;;;;;10.02;4.75;;;23.00;99.90;;;;;;5054143;28;20052;-76
2022/05/31 05:58:29;;;;;;;8.05;4.70;;;23.20;99.90;;;;;;5079283;28;20055;-76
2022/05/31 06:01:40;;;;;;;15.25;6.22;;;23.40;99.90;;;;;;5057028;28;20048;-77
2022/05/31 06:04:51;;;;;;;12.45;5.53;;;23.70;99.90;;;;;;5045954;28;20040;-76
2022/05/31 06:07:32;;;;;;;10.15;5.00;;;23.80;99.90;;;;;;5057267;28;20453;-77
2022/05/31 06:10:21;;;;;;;10.73;4.75;;;23.80;99.90;;;;;;5073757;28;20043;-78
2022/05/31 06:12:54;;;;;;;17.90;4.95;;;23.90;99.90;;;;;;5056747;28;20389;-76
2022/05/31 06:15:27;;;;;;;9.38;4.90;;;24.00;99.90;;;;;;5057275;28;20060;-76
2022/05/31 06:17:57;;;;;;;10.77;3.60;;;24.00;99.90;;;;;;5057441;28;20105;-76
2022/05/31 06:20:26;;;;;;;9.98;5.38;;;24.10;99.90;;;;;;5057302;28;20575;-76
2022/05/31 06:22:56;;;;;;;7.47;4.18;;;24.30;99.90;;;;;;5057159;28;20524;-77
2022/05/31 06:25:24;;;;;;;20.25;4.88;;;24.30;99.90;;;;;;5073447;28;20769;-76
2022/05/31 06:28:09;;;;;;;7.60;4.65;;;24.40;99.90;;;;;;5059166;28;20108;-77
2022/05/31 06:30:37;;;;;;;9.20;4.05;;;24.50;99.90;;;;;;5056903;28;20040;-78
2022/05/31 06:33:06;;;;;;;9.90;4.55;;;24.50;99.90;;;;;;5040571;28;20066;-77
2022/05/31 06:35:34;;;;;;;14.43;4.90;;;24.70;99.90;;;;;;5040040;28;20056;-76
2022/05/31 06:38:06;;;;;;;7.25;4.13;;;24.70;99.90;;;;;;5056606;28;20055;-77
2022/05/31 06:40:34;;;;;;;11.88;4.32;;;24.80;99.90;;;;;;5073432;28;20040;-76
2022/05/31 06:43:25;;;;;;;11.15;3.88;;;24.90;99.90;;;;;;5047017;28;20201;-76
2022/05/31 06:46:31;;;;;;;11.57;3.60;;;25.00;99.90;;;;;;4969846;28;20053;-76
2022/05/31 06:49:17;;;;;;;;;;;25.00;99.90;;;;;;4968765;28;20084;-76
2022/05/31 06:58:05;;;;;;;11.00;4.65;;;25.50;99.90;;;;;;5090934;28;20482;-78
2022/05/31 07:00:37;;;;;;;6.13;3.58;;;25.70;99.90;;;;;;5040180;28;20052;-78
2022/05/31 07:03:07;;;;;;;9.43;3.83;;;25.80;99.90;;;;;;5055859;28;20047;-78
2022/05/31 07:05:38;;;;;;;14.23;5.03;;;25.80;99.90;;;;;;5040150;28;20494;-76
2022/05/31 07:08:13;;;;;;;12.63;4.03;;;25.80;99.90;;;;;;5056941;28;20051;-78
2022/05/31 07:10:53;;;;;;;8.00;3.38;;;25.80;99.90;;;;;;5074876;28;20517;-78
2022/05/31 07:13:39;;;;;;;13.55;4.78;;;26.00;99.90;;;;;;5071926;28;20129;-78
2022/05/31 07:16:27;;;;;;;13.48;4.13;;;26.10;99.90;;;;;;5090289;28;20054;-78
2022/05/31 07:19:33;;;;;;;9.52;4.97;;;26.20;99.90;;;;;;5007810;28;20046;-77
2022/05/31 07:22:12;;;;;;;6.90;3.10;;;26.40;99.90;;;;;;4977471;28;20045;-76
2022/05/31 07:24:41;;;;;;;8.90;3.50;;;26.50;99.90;;;;;;5046357;28;20052;-78
2022/05/31 07:27:42;;;;;;;9.90;3.50;;;26.60;99.90;;;;;;5056866;28;20055;-77
2022/05/31 07:30:10;;;;;;;9.00;3.15;;;26.60;99.90;;;;;;5072408;28;20044;-77
2022/05/31 07:32:38;;;;;;;8.70;3.45;;;26.60;99.90;;;;;;5056146;28;20064;-77
2022/05/31 07:35:25;;;;;;;8.00;4.15;;;26.60;99.90;;;;;;5072200;28;20139;-76
2022/05/31 07:37:53;;;;;;;14.25;4.20;;;26.80;99.90;;;;;;5072250;28;20044;-77
2022/05/31 07:40:23;;;;;;;8.43;4.05;;;26.70;99.90;;;;;;5055218;28;20097;-77
2022/05/31 07:42:52;;;;;;;10.95;3.95;;;26.80;99.90;;;;;;5072534;28;20092;-77
2022/05/31 07:45:20;;;;;;;8.68;3.10;;;26.80;99.90;;;;;;5088553;28;20516;-76
2022/05/31 07:47:47;;;;;;;8.88;3.75;;;26.90;99.90;;;;;;5055908;28;20121;-79
2022/05/31 07:50:15;;;;;;;7.72;3.47;;;27.00;99.90;;;;;;5055400;28;20516;-78
2022/05/31 07:52:43;;;;;;;10.48;3.42;;;27.10;99.90;;;;;;5055620;28;20051;-77
2022/05/31 07:55:29;;;;;;;;;;;27.10;99.90;;;;;;5058817;28;20054;-78
2022/05/31 07:58:31;;;;;;;8.23;2.92;;;27.30;99.90;;;;;;5089766;28;19928;-77
2022/05/31 08:01:22;;;;;;;9.05;3.38;;;27.40;99.90;;;;;;5076366;28;20101;-77
2022/05/31 08:03:50;;;;;;;8.32;3.70;;;27.40;99.90;;;;;;5059307;28;20044;-77
2022/05/31 08:06:21;;;;;;;5.38;2.80;;;27.40;99.90;;;;;;5093930;28;20131;-76
2022/05/31 08:08:49;;;;;;;8.70;3.55;;;27.50;99.90;;;;;;5094288;28;20032;-77
2022/05/31 08:11:24;;;;;;;9.93;3.67;;;27.50;99.90;;;;;;5076173;28;20051;-77
2022/05/31 08:13:53;;;;;;;12.55;3.88;;;27.40;99.90;;;;;;5076342;28;20079;-77
2022/05/31 08:16:23;;;;;;;12.15;3.42;;;27.30;99.90;;;;;;5059320;28;20394;-77
2022/05/31 08:18:52;;;;;;;9.68;2.75;;;27.50;99.90;;;;;;5093829;28;20374;-76
2022/05/31 08:21:27;;;;;;;9.23;3.00;;;27.60;99.90;;;;;;5059364;28;20105;-77
2022/05/31 08:23:56;;;;;;;7.32;4.00;;;27.70;99.90;;;;;;5059275;28;20056;-77
2022/05/31 08:26:25;;;;;;;10.68;3.70;;;27.90;99.80;;;;;;5058730;28;20051;-78
2022/05/31 08:28:53;;;;;;;10.73;3.28;;;27.90;99.90;;;;;;5075965;28;20136;-77
2022/05/31 08:31:27;;;;;;;7.43;3.55;;;27.80;99.70;;;;;;5076088;28;20052;-77
2022/05/31 08:33:55;;;;;;;8.23;3.15;;;27.90;99.10;;;;;;5075139;28;20520;-77
2022/05/31 08:36:23;;;;;;;10.88;3.17;;;28.00;98.90;;;;;;5091690;28;20044;-77
2022/05/31 08:38:50;;;;;;;6.72;3.28;;;28.00;98.70;;;;;;5093719;28;20051;-77
2022/05/31 08:41:36;;;;;;;8.68;3.05;;;28.00;98.90;;;;;;5075147;28;20043;-77
2022/05/31 08:44:24;;;;;;;6.07;3.00;;;27.90;98.30;;;;;;5093061;28;20421;-76
2022/05/31 08:47:12;;;;;;;12.43;3.50;;;28.00;97.70;;;;;;5075646;28;20059;-77
2022/05/31 08:53:05;;;;;;;10.10;4.07;;;27.80;98.50;;;;;;5058854;28;20055;-78
2022/05/31 08:58:40;;;;;;;12.73;3.58;;;28.00;98.30;;;;;;5058412;28;20393;-77
2022/05/31 09:01:11;;;;;;;8.20;3.80;;;28.00;97.90;;;;;;5092518;28;20036;-78
2022/05/31 09:03:47;;;;;;;6.70;2.70;;;28.10;98.90;;;;;;5074851;28;20761;-77
2022/05/31 09:06:21;;;;;;;;;;;28.00;98.50;;;;;;5058426;28;20040;-77
2022/05/31 09:09:01;;;;;;;9.25;3.20;;;28.00;97.80;;;;;;5058593;28;19920;-78
2022/05/31 09:12:06;;;;;;;9.25;4.07;;;28.00;97.70;;;;;;5092897;28;20048;-78
2022/05/31 09:14:49;;;;;;;10.57;3.53;;;28.00;97.50;;;;;;4961420;28;20113;-77
2022/05/31 09:17:51;;;;;;;9.18;3.88;;;28.10;96.90;;;;;;5051086;28;20052;-77
2022/05/31 09:20:31;;;;;;;6.60;3.30;;;28.20;97.50;;;;;;5026404;28;20051;-78
2022/05/31 09:22:59;;;;;;;7.47;3.58;;;28.10;97.50;;;;;;5058256;28;20040;-77
2022/05/31 09:25:32;;;;;;;6.03;3.63;;;28.00;98.10;;;;;;5074271;28;20048;-77
2022/05/31 09:28:06;;;;;;;9.27;3.45;;;27.90;97.90;;;;;;5058108;28;20075;-79
2022/05/31 09:30:42;;;;;;;8.05;3.63;;;27.90;98.10;;;;;;5057776;28;20135;-77
2022/05/31 09:33:19;;;;;;;10.57;4.45;;;28.00;98.20;;;;;;5074555;28;20048;-77
2022/05/31 09:35:58;;;;;;;10.00;3.50;;;28.00;97.90;;;;;;5051781;28;20060;-77
2022/05/31 09:38:54;;;;;;;8.75;3.90;;;28.10;97.60;;;;;;5054173;28;20052;-77
2022/05/31 09:41:31;;;;;;;6.80;3.10;;;28.10;97.50;;;;;;5021471;28;20080;-77
2022/05/31 09:44:17;;;;;;;6.95;2.92;;;28.30;96.80;;;;;;5054489;28;20778;-77
2022/05/31 09:46:52;;;;;;;9.60;4.63;;;28.30;96.70;;;;;;5054531;28;20402;-79
2022/05/31 09:49:26;;;;;;;14.23;2.97;;;28.30;96.90;;;;;;5054035;28;20048;-78
2022/05/31 09:51:53;;;;;;;7.88;3.00;;;28.40;96.60;;;;;;5072042;28;20040;-78
2022/05/31 09:57:29;;;;;;;7.85;3.58;;;28.40;97.60;;;;;;5054280;28;20060;-78
2022/05/31 10:00:13;;;;;;;7.13;3.28;;;28.30;97.90;;;;;;5072072;28;20048;-77
2022/05/31 10:03:11;;;;;;;6.70;3.35;;;28.40;97.40;;;;;;5071782;28;20036;-78
2022/05/31 10:05:41;;;;;;;7.05;2.80;;;28.40;97.30;;;;;;5034370;28;20084;-77
2022/05/31 10:08:33;;;;;;;7.30;3.63;;;28.30;97.40;;;;;;5037627;28;20532;-77
2022/05/31 10:11:28;;;;;;;8.43;2.97;;;28.20;97.40;;;;;;5037288;28;20049;-78
2022/05/31 10:13:58;;;;;;;8.15;2.60;;;28.40;97.30;;;;;;5034584;28;20051;-78
2022/05/31 10:16:30;;;;;;;7.60;3.20;;;28.60;96.80;;;;;;5053699;28;20154;-78
2022/05/31 10:19:03;;;;;;;8.30;2.78;;;28.70;96.50;;;;;;5053762;28;20054;-78
2022/05/31 10:21:38;;;;;;;7.28;3.38;;;28.60;95.80;;;;;;5071414;28;20049;-77
2022/05/31 10:24:17;;;;;;;9.00;3.05;;;28.70;95.70;;;;;;5035893;28;20053;-78
2022/05/31 10:27:19;;;;;;;10.00;3.97;;;28.50;96.10;;;;;;5056020;28;20502;-78
2022/05/31 10:30:09;;;;;;;8.07;2.85;;;28.40;95.90;;;;;;5053515;28;20050;-77
2022/05/31 10:32:48;;;;;;;7.90;2.35;;;28.40;95.50;;;;;;5037891;28;20491;-77
2022/05/31 10:35:29;;;;;;;11.20;3.50;;;28.40;95.90;;;;;;5069875;28;20419;-77
2022/05/31 10:38:09;;;;;;;7.30;2.83;;;28.50;96.10;;;;;;5037704;28;20041;-77
2022/05/31 10:40:48;;;;;;;15.98;4.00;;;28.30;95.90;;;;;;5053323;28;20053;-77
2022/05/31 10:43:37;;;;;;;8.55;3.13;;;28.40;94.70;;;;;;5035975;28;20052;-77
2022/05/31 10:46:17;;;;;;;10.38;3.92;;;28.40;94.20;;;;;;5052261;28;20052;-79
2022/05/31 10:48:50;;;;;;;8.23;2.55;;;28.60;94.00;;;;;;5036202;28;20041;-77
2022/05/31 10:51:32;;;;;;;9.40;2.70;;;28.50;92.90;;;;;;5036620;28;20052;-77
2022/05/31 10:54:24;;;;;;;9.82;3.33;;;28.60;93.30;;;;;;5036802;28;20036;-78
2022/05/31 10:56:57;;;;;;;6.60;2.85;;;28.80;93.50;;;;;;5052993;28;20479;-77
2022/05/31 10:59:48;;;;;;;6.28;3.42;;;28.80;93.00;;;;;;5020030;28;20040;-78
2022/05/31 11:02:36;;;;;;;11.05;2.65;;;28.70;92.90;;;;;;5035955;28;20453;-77
2022/05/31 11:05:15;;;;;;;8.43;3.70;;;28.80;93.00;;;;;;5023591;28;20491;-78
2022/05/31 11:11:28;;;;;;;6.03;2.83;;;28.90;92.30;;;;;;5052788;28;20564;-77
2022/05/31 11:13:40;;;;;;;5.05;2.30;;;28.90;93.50;;;;;;5070761;28;20076;-75
2022/05/31 11:16:30;;;;;;;11.87;4.00;;;29.00;93.60;;;;;;5070198;28;20055;-75
2022/05/31 11:19:15;;;;;;;8.55;2.85;;;28.90;94.10;;;;;;5062085;28;20052;-75
2022/05/31 11:22:05;;;;;;;7.07;2.75;;;29.00;93.10;;;;;;5072754;28;20067;-75
2022/05/31 11:24:46;;;;;;;7.05;2.45;;;29.00;92.60;;;;;;5055846;28;20408;-76
2022/05/31 11:27:49;;;;;;;7.63;3.10;;;29.00;92.30;;;;;;5072483;28;20434;-75
2022/05/31 11:30:30;;;;;;;8.65;4.05;;;29.00;91.50;;;;;;5038408;28;20052;-77
2022/05/31 11:33:06;;;;;;;10.75;2.67;;;29.00;90.80;;;;;;5055606;28;20536;-77
2022/05/31 11:36:19;;;;;;;7.15;2.05;;;29.00;90.20;;;;;;5055926;28;20481;-77
2022/05/31 11:39:08;;;;;;;6.38;2.70;;;29.00;90.90;;;;;;5053525;28;20105;-77
2022/05/31 11:41:39;;;;;;;11.00;2.92;;;28.90;90.70;;;;;;5078424;28;20138;-79
2022/05/31 11:44:42;;;;;;;7.70;2.60;;;29.00;91.20;;;;;;5077957;28;20063;-77
2022/05/31 11:47:30;;;;;;;6.55;2.45;;;29.00;90.80;;;;;;5061484;28;20502;-76
2022/05/31 11:50:21;;;;;;;6.10;2.22;;;28.90;90.20;;;;;;5078276;28;20052;-78
2022/05/31 11:53:07;;;;;;;16.65;3.30;;;28.90;90.90;;;;;;5045255;28;20044;-77
2022/05/31 11:56:01;;;;;;;5.10;2.67;;;29.00;90.30;;;;;;5045461;28;20060;-80
2022/05/31 11:58:34;;;;;;;4.20;2.70;;;29.00;91.30;;;;;;5044708;28;20513;-78
2022/05/31 12:01:17;;;;;;;8.05;3.40;;;29.20;91.00;;;;;;5062081;28;20044;-77
2022/05/31 12:04:04;;;;;;;9.95;3.10;;;29.10;92.40;;;;;;5078254;28;20141;-79
2022/05/31 12:06:37;;;;;;;8.27;2.53;;;29.00;93.20;;;;;;5076154;28;20109;-78
2022/05/31 12:09:25;;;;;;;9.30;4.15;;;29.10;93.50;;;;;;5078531;28;20156;-80
2022/05/31 12:12:04;;;;;;;7.07;2.78;;;29.00;94.00;;;;;;5061846;28;20044;-78
2022/05/31 12:14:36;;;;;;;10.95;3.30;;;29.10;94.00;;;;;;5061462;28;20058;-77
2022/05/31 12:17:04;;;;;;;7.50;2.95;;;29.20;94.80;;;;;;5061545;28;20052;-78
2022/05/31 12:19:54;;;;;;;10.23;3.08;;;29.10;95.30;;;;;;5078752;28;20054;-77
2022/05/31 12:22:28;;;;;;;13.35;4.18;;;29.00;95.50;;;;;;5061615;28;20040;-77
2022/05/31 12:25:07;;;;;;;7.25;2.90;;;28.90;96.30;;;;;;5078023;28;20052;-78
2022/05/31 12:27:43;;;;;;;6.35;3.05;;;28.90;96.20;;;;;;5044975;28;20443;-79
2022/05/31 12:30:20;;;;;;;9.43;3.78;;;28.80;96.40;;;;;;5060776;28;20143;-77
2022/05/31 12:32:53;;;;;;;8.02;2.83;;;28.80;96.70;;;;;;5078513;28;20134;-77
2022/05/31 12:35:29;;;;;;;8.18;2.65;;;28.80;96.40;;;;;;5060511;28;20080;-79
2022/05/31 12:38:00;;;;;;;5.00;3.35;;;28.70;96.70;;;;;;5061152;28;20052;-79
2022/05/31 12:40:34;;;;;;;11.32;3.75;;;28.80;96.50;;;;;;5061455;28;20133;-76
2022/05/31 12:43:47;;;;;;;8.35;3.13;;;28.90;96.20;;;;;;5061258;28;20044;-78
2022/05/31 12:46:45;;;;;;;7.43;4.03;;;29.00;95.10;;;;;;5051005;28;20097;-76
2022/05/31 12:49:28;;;;;;;7.47;3.97;;;29.00;95.70;;;;;;5057361;28;20387;-77
2022/05/31 12:55:03;;;;;;;7.45;3.17;;;29.10;95.70;;;;;;5044601;28;20047;-78
2022/05/31 13:00:33;;;;;;;6.28;3.33;;;29.00;94.40;;;;;;5040711;28;20570;-77
2022/05/31 13:03:05;;;;;;;9.73;2.83;;;29.00;93.50;;;;;;5040667;28;20055;-77
2022/05/31 13:05:56;;;;;;;7.90;2.97;;;29.00;93.70;;;;;;5050932;28;20058;-76
2022/05/31 13:08:54;;;;;;;7.10;3.85;;;29.10;94.50;;;;;;5075572;28;20540;-76
2022/05/31 13:20:26;;;;;;;5.07;2.97;;;29.30;93.80;;;;;;5042974;28;20051;-76
2022/05/31 13:22:59;;;;;;;9.80;4.13;;;29.30;93.30;;;;;;5059195;28;20511;-78
2022/05/31 13:26:04;;;;;;;9.77;3.10;;;29.30;92.40;;;;;;5039438;28;20098;-76
2022/05/31 13:28:36;;;;;;;10.82;3.53;;;29.30;91.20;;;;;;5036791;28;20048;-78
2022/05/31 13:31:11;;;;;;;9.70;3.78;;;29.40;91.20;;;;;;5072128;28;20127;-77
2022/05/31 13:33:40;;;;;;;7.22;3.55;;;29.60;91.70;;;;;;5042831;28;20049;-78
2022/05/31 13:36:23;;;;;;;8.43;3.55;;;29.70;92.40;;;;;;5053775;28;20541;-78
2022/05/31 13:38:57;;;;;;;13.68;4.05;;;29.80;92.40;;;;;;5037715;28;20049;-80
2022/05/31 13:41:26;;;;;;;8.85;2.40;;;29.80;92.10;;;;;;5054417;28;20045;-78
2022/05/31 13:43:57;;;;;;;6.40;3.17;;;30.00;86.00;;;;;;5054092;28;20044;-75
2022/05/31 13:46:45;;;;;;;8.95;3.10;;;30.10;82.40;;;;;;5036797;28;20056;-76
2022/05/31 13:49:39;;;;;;;25.60;14.18;;;30.10;80.50;;;;;;5037530;28;20079;-75
2022/05/31 13:52:24;;;;;;;21.27;12.10;;;30.20;80.40;;;;;;5054028;28;20048;-77
2022/05/31 13:55:05;;;;;;;10.73;5.82;;;30.20;78.80;;;;;;5037454;28;20055;-75
2022/05/31 13:57:34;;;;;;;7.78;3.40;;;30.20;77.10;;;;;;5037519;28;20560;-76
2022/05/31 14:00:04;;;;;;;15.25;4.03;;;30.20;76.70;;;;;;5037545;28;20071;-76
2022/05/31 14:03:00;;;;;;;10.10;3.50;;;30.20;77.20;;;;;;5054032;28;20526;-77
2022/05/31 14:05:34;;;;;;;6.43;2.67;;;30.10;75.80;;;;;;5037272;28;20589;-76
2022/05/31 14:08:04;;;;;;;9.98;2.97;;;30.10;75.90;;;;;;5037283;28;20044;-76
2022/05/31 14:10:45;;;;;;;8.98;3.05;;;30.20;75.70;;;;;;5053789;28;20813;-76
2022/05/31 14:13:24;;;;;;;9.13;3.10;;;30.20;75.50;;;;;;5037019;28;20396;-77
2022/05/31 14:16:27;;;;;;;5.95;2.42;;;30.30;76.00;;;;;;5054099;28;20398;-76
2022/05/31 14:18:57;;;;;;;6.40;2.75;;;30.30;74.80;;;;;;5071511;28;20036;-76